Time;durP1;ratioP1;P1;durP2;ratioP2;P2;SDS_P1;SDS_P2;PMS_P1;PMS_P2;Temp;Humidity;BMP_temperature;BMP_pressure;BME280_temperature;BME280_humidity;BME280_pressure;Samples;Min_cycle;Max_cycle;Signal;HPM_P1;HPM_P2
2023/07/19 00:02:00;;;;;;;5.77;4.40;;;16.00;99.90;;;;;;5078106;28;20472;-59
2023/07/19 00:04:27;;;;;;;7.47;4.70;;;15.90;99.90;;;;;;5078287;28;21072;-58
2023/07/19 00:06:55;;;;;;;6.80;4.60;;;15.90;99.90;;;;;;5078423;28;20811;-59
2023/07/19 00:09:23;;;;;;;6.30;5.43;;;15.90;99.90;;;;;;5077701;28;20485;-59
2023/07/19 00:11:51;;;;;;;6.80;5.90;;;16.00;99.90;;;;;;5078344;28;20882;-58
2023/07/19 00:14:18;;;;;;;6.47;4.50;;;15.90;99.90;;;;;;5078334;28;20552;-58
2023/07/19 00:16:46;;;;;;;9.33;5.43;;;15.90;99.90;;;;;;5078441;28;20774;-58
2023/07/19 00:19:13;;;;;;;10.70;5.87;;;15.80;99.90;;;;;;5077950;28;20485;-58
2023/07/19 00:21:40;;;;;;;5.13;4.43;;;15.80;99.90;;;;;;5077560;28;20461;-59
2023/07/19 00:24:07;;;;;;;6.97;5.10;;;15.80;99.90;;;;;;5077851;28;20462;-58
2023/07/19 00:26:36;;;;;;;7.47;5.90;;;15.80;99.90;;;;;;5078156;28;20469;-58
2023/07/19 00:29:03;;;;;;;6.43;4.67;;;15.70;99.90;;;;;;5077805;28;20467;-58
2023/07/19 00:31:30;;;;;;;5.20;4.70;;;15.70;99.90;;;;;;5077864;28;20465;-58
2023/07/19 00:33:58;;;;;;;6.93;5.40;;;15.70;99.90;;;;;;5077163;28;20478;-58
2023/07/19 00:36:25;;;;;;;5.73;4.57;;;15.60;99.90;;;;;;5077592;28;20468;-58
2023/07/19 00:38:52;;;;;;;6.37;4.80;;;15.70;99.90;;;;;;5077904;28;20453;-59
2023/07/19 00:41:19;;;;;;;11.20;6.00;;;15.70;99.90;;;;;;5077685;28;20468;-58
2023/07/19 00:43:48;;;;;;;7.03;6.00;;;15.60;99.90;;;;;;5077739;28;20732;-58
2023/07/19 00:46:16;;;;;;;5.93;5.17;;;15.50;99.90;;;;;;5077580;28;20465;-58
2023/07/19 00:48:43;;;;;;;7.30;5.40;;;15.40;1.00;;;;;;5077363;28;20496;-58
2023/07/19 00:51:11;;;;;;;7.47;5.10;;;15.30;1.00;;;;;;5077571;28;20908;-58
2023/07/19 00:53:40;;;;;;;5.90;4.80;;;15.20;1.00;;;;;;5077372;28;20917;-59
2023/07/19 00:56:08;;;;;;;7.97;5.50;;;15.30;1.00;;;;;;5077443;28;20464;-58
2023/07/19 00:58:37;;;;;;;6.10;5.50;;;15.30;1.00;;;;;;5077320;28;20461;-58
2023/07/19 01:01:09;;;;;;;6.40;5.40;;;15.30;1.00;;;;;;5077425;28;20771;-58
2023/07/19 01:03:36;;;;;;;6.40;5.10;;;15.30;1.00;;;;;;5077459;28;20453;-58
2023/07/19 01:06:04;;;;;;;8.73;5.97;;;15.10;1.00;;;;;;5077317;28;20465;-59
2023/07/19 01:08:32;;;;;;;11.03;6.27;;;15.20;1.00;;;;;;5077430;28;20547;-58
2023/07/19 01:10:59;;;;;;;6.60;5.40;;;15.20;1.00;;;;;;5076812;28;20457;-58
2023/07/19 01:13:27;;;;;;;7.50;5.30;;;15.10;1.00;;;;;;5076918;28;20462;-59
2023/07/19 01:15:54;;;;;;;7.70;5.27;;;15.10;1.00;;;;;;5077125;28;20569;-59
2023/07/19 01:18:23;;;;;;;8.03;5.27;;;15.00;1.00;;;;;;5077061;28;20461;-58
2023/07/19 01:20:50;;;;;;;6.27;4.70;;;15.00;1.00;;;;;;5076753;28;20487;-58
2023/07/19 01:23:18;;;;;;;6.33;5.73;;;15.00;1.00;;;;;;5077201;28;20461;-58
2023/07/19 01:25:45;;;;;;;5.77;5.00;;;15.00;1.00;;;;;;5077222;28;20496;-58
2023/07/19 01:28:13;;;;;;;6.80;4.47;;;14.90;1.00;;;;;;5077053;28;20458;-59
2023/07/19 01:30:40;;;;;;;6.50;4.83;;;14.90;1.00;;;;;;5077732;28;20501;-58
2023/07/19 01:33:07;;;;;;;5.83;4.83;;;14.90;1.00;;;;;;5083740;28;20877;-59
2023/07/19 01:35:34;;;;;;;5.50;4.60;;;14.90;1.00;;;;;;5083365;28;20583;-58
2023/07/19 01:38:01;;;;;;;7.43;4.93;;;14.90;1.00;;;;;;5083383;28;20461;-58
2023/07/19 01:40:29;;;;;;;6.93;5.23;;;14.80;1.00;;;;;;5082897;28;20466;-59
2023/07/19 01:42:57;;;;;;;5.00;4.50;;;14.70;1.00;;;;;;5084002;28;20705;-58
2023/07/19 01:45:24;;;;;;;8.73;5.10;;;14.60;1.00;;;;;;5083749;28;20457;-58
2023/07/19 01:47:51;;;;;;;6.60;4.83;;;14.60;1.00;;;;;;5083624;28;20520;-58
2023/07/19 01:50:18;;;;;;;6.37;5.30;;;14.50;1.00;;;;;;5083561;28;20496;-58
2023/07/19 01:52:45;;;;;;;9.03;4.67;;;14.60;1.00;;;;;;5083473;28;20472;-58
2023/07/19 01:55:13;;;;;;;5.20;4.60;;;14.60;1.00;;;;;;5083496;28;20461;-59
2023/07/19 01:57:42;;;;;;;9.10;5.33;;;14.60;1.00;;;;;;5083296;28;20515;-59
2023/07/19 02:00:10;;;;;;;5.20;4.70;;;14.50;1.00;;;;;;5083340;28;20461;-58
2023/07/19 02:02:37;;;;;;;6.27;5.67;;;14.40;1.00;;;;;;5083667;28;20463;-58
2023/07/19 02:05:05;;;;;;;6.20;4.90;;;14.40;1.00;;;;;;5083748;28;20464;-58
2023/07/19 02:07:32;;;;;;;4.90;4.07;;;14.40;1.00;;;;;;5083199;28;20897;-58
2023/07/19 02:09:59;;;;;;;6.70;5.10;;;14.40;1.00;;;;;;5083232;28;20489;-58
2023/07/19 02:12:26;;;;;;;5.97;5.13;;;14.40;1.00;;;;;;5083052;28;20475;-58
2023/07/19 02:14:55;;;;;;;7.97;5.90;;;14.40;1.00;;;;;;5083389;28;20467;-58
2023/07/19 02:17:23;;;;;;;7.60;5.30;;;14.30;1.00;;;;;;5083404;28;20460;-58
2023/07/19 02:19:50;;;;;;;7.77;5.20;;;14.20;1.00;;;;;;5082909;28;20463;-58
2023/07/19 02:22:17;;;;;;;5.50;4.23;;;14.10;1.00;;;;;;5083306;28;20874;-58
2023/07/19 02:24:44;;;;;;;8.13;5.50;;;14.10;1.00;;;;;;5083285;28;20749;-58
2023/07/19 02:27:12;;;;;;;5.50;5.00;;;14.00;1.00;;;;;;5082773;28;20460;-58
2023/07/19 02:29:39;;;;;;;7.20;5.27;;;13.90;16.60;;;;;;5082960;28;20562;-58
2023/07/19 02:32:08;;;;;;;8.00;5.50;;;13.90;11.20;;;;;;5083211;28;20467;-59
2023/07/19 02:34:36;;;;;;;5.27;4.53;;;14.00;5.20;;;;;;5082332;28;20491;-58
2023/07/19 02:37:03;;;;;;;7.57;5.40;;;14.10;1.00;;;;;;5083433;28;20458;-59
2023/07/19 02:39:30;;;;;;;6.13;4.17;;;14.00;1.00;;;;;;5083352;28;20453;-58
2023/07/19 02:41:57;;;;;;;5.70;4.67;;;13.90;1.00;;;;;;5082756;28;20916;-58
2023/07/19 02:44:24;;;;;;;6.17;5.30;;;13.90;1.00;;;;;;5079858;28;20465;-58
2023/07/19 02:46:53;;;;;;;5.17;4.57;;;13.90;1.00;;;;;;5079670;28;20453;-59
2023/07/19 02:49:21;;;;;;;6.37;4.80;;;13.90;1.00;;;;;;5080065;28;20587;-58
2023/07/19 02:51:48;;;;;;;5.70;5.10;;;13.90;2.20;;;;;;5079835;28;20469;-57
2023/07/19 02:54:15;;;;;;;6.97;5.30;;;13.90;1.00;;;;;;5079911;28;20875;-58
2023/07/19 02:56:43;;;;;;;9.37;5.37;;;13.80;1.00;;;;;;5079703;28;20900;-58
2023/07/19 02:59:10;;;;;;;7.33;5.10;;;13.80;1.00;;;;;;5079694;28;20457;-58
2023/07/19 03:01:37;;;;;;;4.70;4.20;;;13.80;13.40;;;;;;5078959;28;20461;-59
2023/07/19 03:04:06;;;;;;;7.47;5.27;;;13.70;70.00;;;;;;5079692;28;20952;-58
2023/07/19 03:06:35;;;;;;;9.03;5.40;;;13.70;61.20;;;;;;5079372;28;20497;-58
2023/07/19 03:09:02;;;;;;;5.70;4.40;;;13.70;1.00;;;;;;5079392;28;20489;-58
2023/07/19 03:11:30;;;;;;;8.70;5.83;;;13.70;1.00;;;;;;5079191;28;20519;-58
2023/07/19 03:13:57;;;;;;;10.10;5.50;;;13.70;1.00;;;;;;5079093;28;20556;-58
2023/07/19 03:16:24;;;;;;;5.87;5.27;;;13.80;1.00;;;;;;5079272;28;20461;-57
2023/07/19 03:18:51;;;;;;;6.37;5.07;;;13.70;1.00;;;;;;5079748;28;20548;-59
2023/07/19 03:21:20;;;;;;;6.70;5.27;;;13.70;1.00;;;;;;5079354;28;20465;-58
2023/07/19 03:23:48;;;;;;;6.67;4.93;;;13.70;1.00;;;;;;5078760;28;20568;-58
2023/07/19 03:26:15;;;;;;;5.03;4.53;;;13.80;1.00;;;;;;5079002;28;20765;-58
2023/07/19 03:28:42;;;;;;;6.63;4.70;;;13.80;1.00;;;;;;5079022;28;20465;-60
2023/07/19 03:31:12;;;;;;;5.83;5.00;;;13.80;1.00;;;;;;5079261;28;20463;-58
2023/07/19 03:33:40;;;;;;;5.33;4.83;;;13.80;1.00;;;;;;5078596;28;20497;-58
2023/07/19 03:36:07;;;;;;;6.30;4.83;;;13.70;1.00;;;;;;5078715;28;20489;-58
2023/07/19 03:38:34;;;;;;;5.70;4.80;;;13.70;1.00;;;;;;5078702;28;20462;-58
2023/07/19 03:41:10;;;;;;;6.90;5.20;;;13.70;1.00;;;;;;5078984;28;20462;-58
2023/07/19 03:43:37;;;;;;;5.87;5.27;;;13.70;18.60;;;;;;5078288;28;20460;-58
2023/07/19 03:46:06;;;;;;;7.30;5.33;;;13.60;90.60;;;;;;5078290;28;20472;-58
2023/07/19 03:48:35;;;;;;;6.10;4.93;;;13.70;99.80;;;;;;5077769;28;20461;-58
2023/07/19 03:51:03;;;;;;;7.67;5.37;;;13.70;68.50;;;;;;5078721;28;20786;-59
2023/07/19 03:53:30;;;;;;;5.40;4.80;;;13.80;64.30;;;;;;5078014;28;20461;-58
2023/07/19 03:55:59;;;;;;;5.87;5.27;;;13.90;8.80;;;;;;5077837;28;20465;-59
2023/07/19 03:58:28;;;;;;;5.40;4.87;;;14.00;1.00;;;;;;5078470;28;20560;-58
2023/07/19 04:00:57;;;;;;;7.03;5.23;;;14.10;1.00;;;;;;5078799;28;20461;-58
2023/07/19 04:03:25;;;;;;;7.23;5.97;;;14.10;1.00;;;;;;5078808;28;20453;-58
2023/07/19 04:05:53;;;;;;;6.77;4.40;;;14.20;1.00;;;;;;5078212;28;20720;-58
2023/07/19 04:08:21;;;;;;;7.40;5.10;;;14.20;1.00;;;;;;5078353;28;20572;-58
2023/07/19 04:10:48;;;;;;;5.40;4.70;;;14.20;1.00;;;;;;5078239;28;20587;-59
2023/07/19 04:13:16;;;;;;;5.67;4.70;;;14.30;1.00;;;;;;5078546;28;20501;-58
2023/07/19 04:15:44;;;;;;;6.50;5.00;;;14.40;1.00;;;;;;5077980;28;20925;-59
2023/07/19 04:18:12;;;;;;;6.50;4.97;;;14.50;1.00;;;;;;5078003;28;20890;-56
2023/07/19 04:20:39;;;;;;;5.10;4.30;;;14.50;1.00;;;;;;5078210;28;20436;-58
2023/07/19 04:23:06;;;;;;;6.67;4.87;;;14.60;1.00;;;;;;5078036;28;20461;-58
2023/07/19 04:25:33;;;;;;;5.87;4.60;;;14.60;1.00;;;;;;5077485;28;20462;-58
2023/07/19 04:28:00;;;;;;;6.00;4.60;;;14.60;1.00;;;;;;5077288;28;20468;-58
2023/07/19 04:30:27;;;;;;;5.63;4.70;;;14.70;1.00;;;;;;5082193;28;20948;-58
2023/07/19 04:32:56;;;;;;;9.03;5.10;;;14.70;1.00;;;;;;5098285;28;20457;-59
2023/07/19 04:35:23;;;;;;;6.53;5.30;;;14.80;1.00;;;;;;5097397;28;20492;-58
2023/07/19 04:37:50;;;;;;;6.13;5.33;;;14.90;1.00;;;;;;5097801;28;20464;-58
2023/07/19 04:40:18;;;;;;;6.03;4.80;;;15.00;1.00;;;;;;5097363;28;20460;-58
2023/07/19 04:42:45;;;;;;;7.90;5.60;;;15.00;1.00;;;;;;5097354;28;20862;-58
2023/07/19 04:45:13;;;;;;;6.27;5.30;;;15.00;1.00;;;;;;5096596;28;20475;-58
2023/07/19 04:47:40;;;;;;;7.03;5.50;;;15.20;1.00;;;;;;5096193;28;20888;-58
2023/07/19 04:50:11;;;;;;;7.43;4.97;;;15.30;1.00;;;;;;5095165;28;20583;-58
2023/07/19 04:52:38;;;;;;;7.10;5.07;;;15.30;1.00;;;;;;5095310;28;20731;-59
2023/07/19 04:55:06;;;;;;;6.63;5.00;;;15.40;1.00;;;;;;5095787;28;20466;-59
2023/07/19 04:57:33;;;;;;;10.20;5.00;;;15.50;1.00;;;;;;5096135;28;20461;-58
2023/07/19 05:00:04;;;;;;;6.53;5.03;;;15.50;1.00;;;;;;5095744;28;20468;-57
2023/07/19 05:02:31;;;;;;;6.40;5.63;;;15.60;1.00;;;;;;5095700;28;20456;-58
2023/07/19 05:04:58;;;;;;;5.60;5.03;;;15.60;1.00;;;;;;5096922;28;20457;-58
2023/07/19 05:07:27;;;;;;;7.33;5.70;;;15.70;1.00;;;;;;5096483;28;20892;-59
2023/07/19 05:09:54;;;;;;;6.50;5.20;;;15.70;1.00;;;;;;5096764;28;20492;-58
2023/07/19 05:12:21;;;;;;;9.70;6.10;;;15.80;1.00;;;;;;5097306;28;20460;-58
2023/07/19 05:14:48;;;;;;;5.37;4.70;;;15.90;1.00;;;;;;5097696;28;20562;-59
2023/07/19 05:17:15;;;;;;;6.03;5.43;;;15.90;1.00;;;;;;5097751;28;20461;-57
2023/07/19 05:19:42;;;;;;;8.17;5.50;;;16.00;1.00;;;;;;5096883;28;20463;-58
2023/07/19 05:22:10;;;;;;;7.57;5.40;;;16.10;1.00;;;;;;5097449;28;20466;-58
2023/07/19 05:24:39;;;;;;;9.17;5.40;;;16.20;99.90;;;;;;5097516;28;20460;-58
2023/07/19 05:27:07;;;;;;;7.17;5.80;;;16.20;99.90;;;;;;5097382;28;20465;-59
2023/07/19 05:29:34;;;;;;;7.00;5.90;;;16.30;99.90;;;;;;5097319;28;20783;-58
2023/07/19 05:32:01;;;;;;;7.97;4.80;;;16.30;99.90;;;;;;5097251;28;20456;-58
2023/07/19 05:34:29;;;;;;;7.73;5.83;;;16.40;99.90;;;;;;5096771;28;20481;-58
2023/07/19 05:36:56;;;;;;;6.73;5.97;;;16.40;99.90;;;;;;5097289;28;20585;-58
2023/07/19 05:39:23;;;;;;;8.47;5.60;;;16.50;99.90;;;;;;5097454;28;20457;-60
2023/07/19 05:41:52;;;;;;;6.57;5.20;;;16.70;99.90;;;;;;5096901;28;20885;-59
2023/07/19 05:44:19;;;;;;;8.20;5.40;;;16.70;99.90;;;;;;5091779;28;20453;-60
2023/07/19 05:46:46;;;;;;;7.03;5.57;;;16.80;99.90;;;;;;5077044;28;20527;-60
2023/07/19 05:49:13;;;;;;;7.63;4.97;;;16.90;99.90;;;;;;5077003;28;20465;-59
2023/07/19 05:51:40;;;;;;;6.63;5.83;;;17.10;99.90;;;;;;5076395;28;20493;-60
2023/07/19 05:54:08;;;;;;;6.43;5.83;;;17.20;99.90;;;;;;5076793;28;20887;-60
2023/07/19 05:56:35;;;;;;;5.97;5.20;;;17.40;99.90;;;;;;5077084;28;20436;-60
2023/07/19 05:59:04;;;;;;;6.73;5.37;;;17.60;99.90;;;;;;5077036;28;20472;-60
2023/07/19 06:01:31;;;;;;;6.20;5.60;;;17.70;99.90;;;;;;5076567;28;20462;-59
2023/07/19 06:03:58;;;;;;;7.33;6.13;;;17.90;99.90;;;;;;5076827;28;20464;-59
2023/07/19 06:06:25;;;;;;;6.70;6.00;;;18.10;99.90;;;;;;5076562;28;20467;-60
2023/07/19 06:08:53;;;;;;;10.60;6.13;;;18.20;99.90;;;;;;5076772;28;20834;-59
2023/07/19 06:11:20;;;;;;;7.87;6.53;;;18.30;99.90;;;;;;5076928;28;20494;-59
2023/07/19 06:13:47;;;;;;;6.93;4.60;;;18.30;99.90;;;;;;5076755;28;20728;-59
2023/07/19 06:16:15;;;;;;;7.33;5.07;;;18.50;99.90;;;;;;5076411;28;20436;-58
2023/07/19 06:18:43;;;;;;;9.43;5.43;;;18.80;99.90;;;;;;5079323;28;20465;-59
2023/07/19 06:21:10;;;;;;;7.03;5.60;;;19.00;99.90;;;;;;5080712;28;20541;-59
2023/07/19 06:23:37;;;;;;;7.77;5.53;;;18.90;99.90;;;;;;5080343;28;20461;-59
2023/07/19 06:26:04;;;;;;;5.80;5.17;;;19.00;99.90;;;;;;5080270;28;20464;-59
2023/07/19 06:28:32;;;;;;;11.10;5.43;;;19.00;99.90;;;;;;5080480;28;20465;-60
2023/07/19 06:30:59;;;;;;;6.30;4.90;;;19.20;99.90;;;;;;5080413;28;21030;-59
2023/07/19 06:33:29;;;;;;;8.57;5.90;;;19.40;99.90;;;;;;5079577;28;20461;-60
2023/07/19 06:35:57;;;;;;;7.33;5.27;;;19.50;99.90;;;;;;5080054;28;20474;-60
2023/07/19 06:38:26;;;;;;;6.50;4.67;;;19.70;99.90;;;;;;5080172;28;20464;-60
2023/07/19 06:40:53;;;;;;;7.90;5.30;;;19.70;99.90;;;;;;5079989;28;20502;-59
2023/07/19 06:43:20;;;;;;;8.87;5.70;;;19.90;99.90;;;;;;5080042;28;20463;-60
2023/07/19 06:45:49;;;;;;;7.40;4.93;;;20.00;99.90;;;;;;5080028;28;20463;-60
2023/07/19 06:48:16;;;;;;;9.10;5.63;;;20.10;99.90;;;;;;5079584;28;20461;-60
2023/07/19 06:50:45;;;;;;;5.80;5.20;;;20.20;99.90;;;;;;5079901;28;20500;-60
2023/07/19 06:53:12;;;;;;;6.60;5.00;;;20.20;99.90;;;;;;5079340;28;20560;-60
2023/07/19 06:55:40;;;;;;;11.60;6.10;;;19.90;99.90;;;;;;5082211;28;20459;-59
2023/07/19 06:58:07;;;;;;;10.07;6.60;;;19.80;99.90;;;;;;5087820;28;20456;-58
2023/07/19 07:00:34;;;;;;;10.00;6.20;;;19.30;99.90;;;;;;5099900;28;20452;-61
2023/07/19 07:03:03;;;;;;;10.63;6.30;;;19.10;99.90;;;;;;5099345;28;20773;-60
2023/07/19 07:05:30;;;;;;;10.53;6.13;;;18.90;99.90;;;;;;5098667;28;20461;-62
2023/07/19 07:07:59;;;;;;;16.30;6.20;;;18.80;99.90;;;;;;5097808;28;20495;-64
2023/07/19 07:10:26;;;;;;;8.00;6.47;;;18.80;99.90;;;;;;5098297;28;20477;-64
2023/07/19 07:12:53;;;;;;;6.93;6.17;;;18.90;99.90;;;;;;5099457;28;20464;-64
2023/07/19 07:15:20;;;;;;;7.80;6.20;;;19.00;99.90;;;;;;5098727;28;20559;-64
2023/07/19 07:17:48;;;;;;;7.13;5.63;;;19.00;99.90;;;;;;5098348;28;20468;-63
2023/07/19 07:20:16;;;;;;;11.67;7.20;;;19.10;1.00;;;;;;5097005;28;20465;-62
2023/07/19 07:22:43;;;;;;;9.07;7.23;;;19.10;1.00;;;;;;5097770;28;20466;-63
2023/07/19 07:25:12;;;;;;;7.47;6.67;;;19.10;1.00;;;;;;5097710;28;20482;-62
2023/07/19 07:27:39;;;;;;;7.43;5.60;;;19.30;1.00;;;;;;5097761;28;20889;-62
2023/07/19 07:30:08;;;;;;;6.90;6.20;;;19.40;1.00;;;;;;5096608;28;20792;-62
2023/07/19 07:32:36;;;;;;;7.70;6.07;;;19.60;1.00;;;;;;5097665;28;20538;-64
2023/07/19 07:35:06;;;;;;;10.73;6.50;;;19.90;1.00;;;;;;5097940;28;20498;-62
2023/07/19 07:37:33;;;;;;;7.73;6.10;;;20.10;1.00;;;;;;5097772;28;20502;-61
2023/07/19 07:40:01;;;;;;;10.50;7.03;;;20.20;1.00;;;;;;5097415;28;20730;-61
2023/07/19 07:42:29;;;;;;;11.10;5.90;;;20.20;99.90;;;;;;5097342;28;20460;-61
2023/07/19 07:44:56;;;;;;;8.03;6.33;;;20.10;99.90;;;;;;5096511;28;20457;-61
2023/07/19 07:47:24;;;;;;;10.33;6.67;;;19.90;99.90;;;;;;5097401;28;20459;-61
2023/07/19 07:49:51;;;;;;;10.63;6.70;;;19.80;99.90;;;;;;5097404;28;20476;-61
2023/07/19 07:52:18;;;;;;;12.07;7.00;;;19.60;1.00;;;;;;5097708;28;20498;-61
2023/07/19 07:54:45;;;;;;;11.77;7.50;;;19.60;1.00;;;;;;5098426;28;20461;-61
2023/07/19 07:57:13;;;;;;;9.80;6.60;;;19.60;1.00;;;;;;5099176;28;20673;-61
2023/07/19 07:59:42;;;;;;;8.00;6.70;;;19.60;1.00;;;;;;5098622;28;20725;-61
2023/07/19 08:02:09;;;;;;;10.20;6.90;;;19.60;1.00;;;;;;5098625;28;20748;-61
2023/07/19 08:04:36;;;;;;;11.73;7.67;;;19.60;1.00;;;;;;5098867;28;20464;-61
2023/07/19 08:07:04;;;;;;;10.20;7.50;;;19.30;1.00;;;;;;5098643;28;20461;-61
2023/07/19 08:09:33;;;;;;;10.40;7.03;;;19.20;1.00;;;;;;5098502;28;20462;-62
2023/07/19 08:12:00;;;;;;;12.00;7.33;;;19.10;99.90;;;;;;5098580;28;20488;-62
2023/07/19 08:14:27;;;;;;;8.50;7.10;;;19.00;99.90;;;;;;5098874;28;20460;-60
2023/07/19 08:16:56;;;;;;;10.60;6.37;;;19.00;1.00;;;;;;5099062;28;20460;-60
2023/07/19 08:19:23;;;;;;;9.10;6.80;;;19.00;1.00;;;;;;5099133;28;20881;-61
2023/07/19 08:21:50;;;;;;;10.73;7.23;;;19.10;1.00;;;;;;5098229;28;20564;-62
2023/07/19 08:24:17;;;;;;;8.60;6.80;;;18.90;1.00;;;;;;5096974;28;20628;-63
2023/07/19 08:26:44;;;;;;;10.07;6.90;;;19.00;1.00;;;;;;5097595;28;20479;-62
2023/07/19 08:29:12;;;;;;;10.70;5.90;;;19.10;1.00;;;;;;5098203;28;20557;-62
2023/07/19 08:31:39;;;;;;;9.03;6.67;;;18.90;1.00;;;;;;5098097;28;20777;-62
2023/07/19 08:34:08;;;;;;;8.80;6.87;;;18.70;1.00;;;;;;5095942;28;20488;-62
2023/07/19 08:36:35;;;;;;;10.03;6.87;;;18.60;1.00;;;;;;5087493;28;20484;-62
2023/07/19 08:39:02;;;;;;;9.10;6.10;;;18.60;1.00;;;;;;5088460;28;20475;-63
2023/07/19 08:41:32;;;;;;;9.43;7.50;;;18.50;1.00;;;;;;5092093;28;20757;-59
2023/07/19 08:44:00;;;;;;;11.23;7.57;;;18.60;1.00;;;;;;5097067;28;20443;-60
2023/07/19 08:46:27;;;;;;;10.60;6.57;;;18.50;99.90;;;;;;5096494;28;20762;-59
2023/07/19 08:48:54;;;;;;;7.70;6.90;;;18.40;1.00;;;;;;5096755;28;20465;-60
2023/07/19 08:51:24;;;;;;;8.07;7.27;;;18.60;1.00;;;;;;5097657;28;20484;-61
2023/07/19 08:53:51;;;;;;;10.63;7.40;;;18.80;1.00;;;;;;5097541;28;20465;-62
2023/07/19 08:56:19;;;;;;;10.33;7.20;;;19.00;1.00;;;;;;5097689;28;20456;-61
2023/07/19 08:58:46;;;;;;;8.30;7.50;;;18.90;1.00;;;;;;5097899;28;20495;-61
2023/07/19 09:01:14;;;;;;;7.80;6.70;;;19.30;1.00;;;;;;5097714;28;20456;-62
2023/07/19 09:03:41;;;;;;;8.93;7.77;;;19.30;99.90;;;;;;5097314;28;20460;-62
2023/07/19 09:06:08;;;;;;;9.40;7.20;;;19.40;1.00;;;;;;5097685;28;20551;-63
2023/07/19 09:08:38;;;;;;;10.63;7.80;;;19.10;99.90;;;;;;5097480;28;20460;-63
2023/07/19 09:11:05;;;;;;;10.33;7.80;;;19.40;1.00;;;;;;5097036;28;20485;-63
2023/07/19 09:13:33;;;;;;;9.67;8.33;;;19.50;1.00;;;;;;5097380;28;20496;-62
2023/07/19 09:16:03;;;;;;;11.30;7.00;;;19.70;99.90;;;;;;5097219;28;20464;-61
2023/07/19 09:18:35;;;;;;;9.13;7.40;;;19.70;99.90;;;;;;5097468;28;20464;-62
2023/07/19 09:21:03;;;;;;;10.43;7.47;;;20.30;1.00;;;;;;5097798;28;20869;-62
2023/07/19 09:23:37;;;;;;;10.07;6.87;;;20.40;99.90;;;;;;5097128;28;20472;-62
2023/07/19 09:26:05;;;;;;;11.40;7.57;;;20.50;99.90;;;;;;5096900;28;20806;-62
2023/07/19 09:28:34;;;;;;;8.03;6.00;;;20.20;99.90;;;;;;5097053;28;20467;-62
2023/07/19 09:31:03;;;;;;;10.10;6.80;;;20.20;99.90;;;;;;5096132;28;20488;-62
2023/07/19 09:33:30;;;;;;;8.30;6.60;;;20.20;99.90;;;;;;5095662;28;20486;-62
2023/07/19 09:35:58;;;;;;;8.27;7.10;;;19.90;99.90;;;;;;5096796;28;20551;-62
2023/07/19 09:38:29;;;;;;;8.00;7.03;;;19.90;99.90;;;;;;5096124;28;20920;-62
2023/07/19 09:40:57;;;;;;;9.87;7.47;;;19.60;99.90;;;;;;5097267;28;20907;-62
2023/07/19 09:43:25;;;;;;;11.10;7.50;;;19.50;99.90;;;;;;5096892;28;20456;-62
2023/07/19 09:45:52;;;;;;;16.33;8.17;;;19.60;99.90;;;;;;5097211;28;20475;-62
2023/07/19 09:48:21;;;;;;;10.43;7.57;;;19.30;99.90;;;;;;5097096;28;20575;-62
2023/07/19 09:50:50;;;;;;;12.97;7.73;;;19.30;99.90;;;;;;5097462;28;20463;-62
2023/07/19 09:53:17;;;;;;;9.23;8.03;;;19.30;99.90;;;;;;5099410;28;20464;-62
2023/07/19 09:55:48;;;;;;;10.10;9.10;;;19.20;1.00;;;;;;5100874;28;20456;-63
2023/07/19 09:58:18;;;;;;;8.50;7.60;;;19.30;1.00;;;;;;5101211;28;20900;-62
2023/07/19 10:00:47;;;;;;;9.90;7.80;;;19.30;1.00;;;;;;5101384;28;20460;-62
2023/07/19 10:03:19;;;;;;;9.57;7.80;;;19.30;1.00;;;;;;5101500;28;20504;-61
2023/07/19 10:05:46;;;;;;;11.63;8.23;;;19.60;1.00;;;;;;5100863;28;20460;-63
2023/07/19 10:08:13;;;;;;;8.97;8.07;;;19.50;99.90;;;;;;5100784;28;20478;-62
2023/07/19 10:10:42;;;;;;;9.00;8.10;;;20.20;1.00;;;;;;5100840;28;20456;-63
2023/07/19 10:13:09;;;;;;;11.63;8.77;;;20.80;1.00;;;;;;5100338;28;20496;-64
2023/07/19 10:15:38;;;;;;;15.77;9.73;;;21.20;1.00;;;;;;5100402;28;20451;-65
2023/07/19 10:18:13;;;;;;;11.67;7.97;;;21.20;99.90;;;;;;5101147;28;20543;-64
2023/07/19 10:20:43;;;;;;;12.80;9.20;;;21.70;99.90;;;;;;5101052;28;20460;-65
2023/07/19 10:23:15;;;;;;;9.40;7.07;;;22.00;99.90;;;;;;5100563;28;20460;-65
2023/07/19 10:25:47;;;;;;;9.93;7.40;;;22.40;99.90;;;;;;5100219;28;20460;-64
2023/07/19 10:28:25;;;;;;;7.10;6.33;;;22.50;99.90;;;;;;5100557;28;20768;-63
2023/07/19 10:30:55;;;;;;;8.07;6.43;;;22.20;99.90;;;;;;5100778;28;20470;-63
2023/07/19 10:33:25;;;;;;;8.53;7.20;;;22.60;99.90;;;;;;5100641;28;20870;-63
2023/07/19 10:35:53;;;;;;;9.63;7.17;;;23.00;99.90;;;;;;5100436;28;20490;-64
2023/07/19 10:38:22;;;;;;;6.97;6.07;;;23.50;99.90;;;;;;5100355;28;20487;-65
2023/07/19 10:40:56;;;;;;;9.47;6.30;;;23.70;99.90;;;;;;5100483;28;20898;-64
2023/07/19 10:43:24;;;;;;;7.73;5.90;;;23.40;99.90;;;;;;5100034;28;20871;-63
2023/07/19 10:45:54;;;;;;;6.63;5.90;;;23.60;99.90;;;;;;5100139;28;20956;-63
2023/07/19 10:48:25;;;;;;;6.87;5.23;;;24.00;99.90;;;;;;5100268;28;20459;-62
2023/07/19 10:50:52;;;;;;;7.07;6.37;;;24.30;99.90;;;;;;5100230;28;20464;-62
2023/07/19 10:53:19;;;;;;;10.87;6.27;;;24.20;99.90;;;;;;5100129;28;20503;-62
2023/07/19 10:55:46;;;;;;;9.70;6.30;;;24.50;99.90;;;;;;5098659;28;20431;-64
2023/07/19 10:58:16;;;;;;;6.53;5.70;;;24.80;99.90;;;;;;5099255;28;20457;-62
2023/07/19 11:00:44;;;;;;;6.60;5.40;;;24.80;99.90;;;;;;5100281;28;20460;-61
2023/07/19 11:03:16;;;;;;;8.13;6.47;;;25.10;99.90;;;;;;5099992;28;20566;-62
2023/07/19 11:05:48;;;;;;;7.40;4.80;;;24.80;99.90;;;;;;5098717;28;20460;-62
2023/07/19 11:08:21;;;;;;;6.87;5.37;;;24.50;99.90;;;;;;5100021;28;20461;-61
2023/07/19 11:10:50;;;;;;;5.80;4.57;;;24.20;99.90;;;;;;5099748;28;20467;-62
2023/07/19 11:13:20;;;;;;;5.60;5.10;;;24.50;99.90;;;;;;5099689;28;20488;-62
2023/07/19 11:15:49;;;;;;;7.80;5.80;;;24.60;99.90;;;;;;5099520;28;20482;-62
2023/07/19 11:18:26;;;;;;;7.03;4.83;;;24.70;99.90;;;;;;5099090;28;20460;-63
2023/07/19 11:20:54;;;;;;;7.27;4.50;;;24.80;99.90;;;;;;5099870;28;20466;-63
2023/07/19 11:23:21;;;;;;;7.27;5.00;;;25.40;99.90;;;;;;5099562;28;20889;-63
2023/07/19 11:25:49;;;;;;;7.90;5.63;;;26.00;99.90;;;;;;5099159;28;20468;-63
2023/07/19 11:28:37;;;;;;;5.90;4.53;;;26.80;99.90;;;;;;5098709;28;20491;-63
2023/07/19 11:31:05;;;;;;;8.37;5.33;;;27.40;99.90;;;;;;5099097;28;20457;-64
2023/07/19 11:33:36;;;;;;;6.03;4.47;;;28.00;99.90;;;;;;5098663;28;20492;-64
2023/07/19 11:36:07;;;;;;;6.77;5.30;;;27.80;99.90;;;;;;5098972;28;20475;-63
2023/07/19 11:38:34;;;;;;;7.27;5.60;;;27.40;99.90;;;;;;5099263;28;20756;-63
2023/07/19 11:41:02;;;;;;;6.60;5.63;;;27.70;99.90;;;;;;5099515;28;20555;-63
2023/07/19 11:43:29;;;;;;;6.53;5.90;;;28.30;99.90;;;;;;5099156;28;20503;-65
2023/07/19 11:45:56;;;;;;;7.70;5.67;;;26.40;99.90;;;;;;5098752;28;20525;-62
2023/07/19 11:48:24;;;;;;;7.80;6.17;;;25.80;99.90;;;;;;5098854;28;20499;-62
2023/07/19 11:50:52;;;;;;;17.93;6.83;;;25.60;99.90;;;;;;5099284;28;20483;-65
2023/07/19 11:53:20;;;;;;;7.43;5.90;;;26.10;99.90;;;;;;5098771;28;20496;-65
2023/07/19 11:55:47;;;;;;;5.93;5.30;;;25.90;99.90;;;;;;5098296;28;20460;-63
2023/07/19 11:58:14;;;;;;;6.57;5.90;;;26.60;99.90;;;;;;5097505;28;20893;-64
2023/07/19 12:00:41;;;;;;;6.67;6.07;;;26.00;99.90;;;;;;5097610;28;20456;-65
2023/07/19 12:03:09;;;;;;;7.63;5.23;;;26.60;99.90;;;;;;5097414;28;20492;-66
2023/07/19 12:05:36;;;;;;;7.20;6.33;;;26.90;99.90;;;;;;5096993;28;20494;-63
2023/07/19 12:08:05;;;;;;;7.90;6.00;;;26.30;99.90;;;;;;5097400;28;20730;-64
2023/07/19 12:10:33;;;;;;;6.37;4.97;;;25.90;99.90;;;;;;5097595;28;20468;-66
2023/07/19 12:13:00;;;;;;;8.40;6.00;;;26.40;99.90;;;;;;5098003;28;20747;-65
2023/07/19 12:15:28;;;;;;;9.17;5.80;;;26.10;99.90;;;;;;5097084;28;20878;-64
2023/07/19 12:17:56;;;;;;;5.37;4.87;;;25.80;99.90;;;;;;5096811;28;20546;-67
2023/07/19 12:20:24;;;;;;;6.73;5.03;;;25.90;99.90;;;;;;5095843;28;20467;-65
2023/07/19 12:22:51;;;;;;;5.97;5.37;;;26.20;99.90;;;;;;5095173;28;20481;-63
2023/07/19 12:25:21;;;;;;;5.90;5.03;;;27.10;99.90;;;;;;5096114;28;20541;-65
2023/07/19 12:27:52;;;;;;;7.53;5.17;;;26.70;99.90;;;;;;5096397;28;20460;-65
2023/07/19 12:30:21;;;;;;;6.07;4.73;;;26.40;99.90;;;;;;5098096;28;20936;-66
2023/07/19 12:32:48;;;;;;;6.50;5.67;;;26.70;99.90;;;;;;5095891;28;20947;-65
2023/07/19 12:35:16;;;;;;;11.40;5.57;;;27.40;99.90;;;;;;5096417;28;20484;-65
2023/07/19 12:37:43;;;;;;;7.70;5.27;;;27.60;99.90;;;;;;5095658;28;20563;-65
2023/07/19 12:40:11;;;;;;;7.13;4.40;;;27.10;99.90;;;;;;5095472;28;20461;-65
2023/07/19 12:42:39;;;;;;;6.10;4.70;;;27.00;99.90;;;;;;5095618;28;20973;-65
2023/07/19 12:45:09;;;;;;;6.30;5.40;;;27.30;99.90;;;;;;5096110;28;20466;-69
2023/07/19 12:47:36;;;;;;;7.23;5.07;;;27.40;99.90;;;;;;5096722;28;20554;-65
2023/07/19 12:50:04;;;;;;;7.10;4.83;;;27.70;99.90;;;;;;5098283;28;20460;-66
2023/07/19 12:52:31;;;;;;;7.13;3.80;;;27.70;99.90;;;;;;5096999;28;20492;-65
2023/07/19 12:54:58;;;;;;;5.73;3.70;;;27.10;99.90;;;;;;5097136;28;20479;-65